sensor_id;sensor_type;location;lat;lon;timestamp;temperature;humidity
13684;DHT22;6914;53.552;9.908;2023-04-29T00:01:17;8.50;99.90
13684;DHT22;6914;53.552;9.908;2023-04-29T00:03:45;8.50;99.90
13684;DHT22;6914;53.552;9.908;2023-04-29T00:06:13;8.40;99.90
13684;DHT22;6914;53.552;9.908;2023-04-29T00:08:41;8.50;99.90
13684;DHT22;6914;53.552;9.908;2023-04-29T00:11:08;8.40;99.90
13684;DHT22;6914;53.552;9.908;2023-04-29T00:13:36;7.30;99.90
13684;DHT22;6914;53.552;9.908;2023-04-29T00:16:06;8.40;99.90
13684;DHT22;6914;53.552;9.908;2023-04-29T00:18:33;9.00;99.90
13684;DHT22;6914;53.552;9.908;2023-04-29T00:21:02;8.60;99.90
13684;DHT22;6914;53.552;9.908;2023-04-29T00:23:31;8.40;99.90
13684;DHT22;6914;53.552;9.908;2023-04-29T00:25:58;8.40;99.90
13684;DHT22;6914;53.552;9.908;2023-04-29T00:28:25;8.30;99.90
13684;DHT22;6914;53.552;9.908;2023-04-29T00:30:52;8.30;99.90
13684;DHT22;6914;53.552;9.908;2023-04-29T00:33:20;8.00;99.90
13684;DHT22;6914;53.552;9.908;2023-04-29T00:35:47;8.40;99.90
13684;DHT22;6914;53.552;9.908;2023-04-29T00:38:17;8.40;99.90
13684;DHT22;6914;53.552;9.908;2023-04-29T00:40:44;8.40;99.90
13684;DHT22;6914;53.552;9.908;2023-04-29T00:43:11;8.30;99.90
13684;DHT22;6914;53.552;9.908;2023-04-29T00:45:38;8.20;99.90
13684;DHT22;6914;53.552;9.908;2023-04-29T00:48:05;8.30;99.90
13684;DHT22;6914;53.552;9.908;2023-04-29T00:50:32;8.20;99.90
13684;DHT22;6914;53.552;9.908;2023-04-29T00:52:59;8.20;99.90
13684;DHT22;6914;53.552;9.908;2023-04-29T00:55:28;8.20;99.90
13684;DHT22;6914;53.552;9.908;2023-04-29T00:57:56;8.20;99.90
13684;DHT22;6914;53.552;9.908;2023-04-29T01:00:23;8.20;99.90
13684;DHT22;6914;53.552;9.908;2023-04-29T01:02:51;8.10;99.90
13684;DHT22;6914;53.552;9.908;2023-04-29T01:05:21;8.20;99.90
13684;DHT22;6914;53.552;9.908;2023-04-29T01:07:55;8.10;99.90
13684;DHT22;6914;53.552;9.908;2023-04-29T01:10:29;8.10;99.90
13684;DHT22;6914;53.552;9.908;2023-04-29T01:13:04;8.20;99.90
13684;DHT22;6914;53.552;9.908;2023-04-29T01:15:37;8.90;99.90
13684;DHT22;6914;53.552;9.908;2023-04-29T01:18:10;8.00;99.90
13684;DHT22;6914;53.552;9.908;2023-04-29T01:20:38;8.00;99.90
13684;DHT22;6914;53.552;9.908;2023-04-29T01:23:05;7.90;99.90
13684;DHT22;6914;53.552;9.908;2023-04-29T01:25:33;7.90;99.90
13684;DHT22;6914;53.552;9.908;2023-04-29T01:28:05;8.00;99.90
13684;DHT22;6914;53.552;9.908;2023-04-29T01:30:40;7.80;99.90
13684;DHT22;6914;53.552;9.908;2023-04-29T01:33:13;7.80;99.90
13684;DHT22;6914;53.552;9.908;2023-04-29T01:35:49;7.80;99.90
13684;DHT22;6914;53.552;9.908;2023-04-29T01:38:28;7.80;99.90
13684;DHT22;6914;53.552;9.908;2023-04-29T01:41:06;7.80;99.90
13684;DHT22;6914;53.552;9.908;2023-04-29T01:43:36;8.00;99.90
13684;DHT22;6914;53.552;9.908;2023-04-29T01:46:05;8.00;99.90
13684;DHT22;6914;53.552;9.908;2023-04-29T01:48:32;7.90;99.90
13684;DHT22;6914;53.552;9.908;2023-04-29T01:50:59;7.90;99.90
13684;DHT22;6914;53.552;9.908;2023-04-29T01:53:26;7.20;99.90
13684;DHT22;6914;53.552;9.908;2023-04-29T01:55:53;8.10;99.90
13684;DHT22;6914;53.552;9.908;2023-04-29T01:58:21;7.80;99.90
13684;DHT22;6914;53.552;9.908;2023-04-29T02:00:48;7.80;99.90
13684;DHT22;6914;53.552;9.908;2023-04-29T02:03:15;7.80;99.90
13684;DHT22;6914;53.552;9.908;2023-04-29T02:05:43;7.80;99.90
13684;DHT22;6914;53.552;9.908;2023-04-29T02:08:10;7.80;99.90
13684;DHT22;6914;53.552;9.908;2023-04-29T02:10:37;7.80;99.90
13684;DHT22;6914;53.552;9.908;2023-04-29T02:13:04;7.80;99.90
13684;DHT22;6914;53.552;9.908;2023-04-29T02:15:32;7.70;99.90
13684;DHT22;6914;53.552;9.908;2023-04-29T02:20:29;7.80;99.90
13684;DHT22;6914;53.552;9.908;2023-04-29T02:22:56;7.70;99.90
13684;DHT22;6914;53.552;9.908;2023-04-29T02:25:23;7.30;99.90
13684;DHT22;6914;53.552;9.908;2023-04-29T02:27:50;7.70;99.90
13684;DHT22;6914;53.552;9.908;2023-04-29T02:30:18;7.40;99.90
13684;DHT22;6914;53.552;9.908;2023-04-29T02:32:47;7.20;99.90
13684;DHT22;6914;53.552;9.908;2023-04-29T02:35:15;7.50;99.90
13684;DHT22;6914;53.552;9.908;2023-04-29T02:37:42;7.80;99.90
13684;DHT22;6914;53.552;9.908;2023-04-29T02:40:09;7.60;99.90
13684;DHT22;6914;53.552;9.908;2023-04-29T02:42:37;7.70;99.90
13684;DHT22;6914;53.552;9.908;2023-04-29T02:45:05;7.70;99.90
13684;DHT22;6914;53.552;9.908;2023-04-29T02:47:32;7.70;99.90
13684;DHT22;6914;53.552;9.908;2023-04-29T02:50:00;7.50;99.90
13684;DHT22;6914;53.552;9.908;2023-04-29T02:52:27;7.70;99.90
13684;DHT22;6914;53.552;9.908;2023-04-29T02:54:53;7.70;99.90
13684;DHT22;6914;53.552;9.908;2023-04-29T02:57:20;7.70;99.90
13684;DHT22;6914;53.552;9.908;2023-04-29T02:59:47;7.70;99.90
13684;DHT22;6914;53.552;9.908;2023-04-29T03:02:14;7.60;99.90
13684;DHT22;6914;53.552;9.908;2023-04-29T03:04:41;7.70;99.90
13684;DHT22;6914;53.552;9.908;2023-04-29T03:07:09;7.60;99.90
13684;DHT22;6914;53.552;9.908;2023-04-29T03:09:37;7.60;99.90
13684;DHT22;6914;53.552;9.908;2023-04-29T03:12:04;7.60;99.90
13684;DHT22;6914;53.552;9.908;2023-04-29T03:14:31;7.60;99.90
13684;DHT22;6914;53.552;9.908;2023-04-29T03:16:58;7.00;99.90
13684;DHT22;6914;53.552;9.908;2023-04-29T03:19:25;7.40;99.90
13684;DHT22;6914;53.552;9.908;2023-04-29T03:21:52;7.60;99.90
13684;DHT22;6914;53.552;9.908;2023-04-29T03:24:21;7.60;99.90
13684;DHT22;6914;53.552;9.908;2023-04-29T03:26:48;7.60;99.90
13684;DHT22;6914;53.552;9.908;2023-04-29T03:29:15;7.50;99.90
13684;DHT22;6914;53.552;9.908;2023-04-29T03:31:45;7.70;99.90
13684;DHT22;6914;53.552;9.908;2023-04-29T03:34:12;7.50;99.90
13684;DHT22;6914;53.552;9.908;2023-04-29T03:36:39;7.60;99.90
13684;DHT22;6914;53.552;9.908;2023-04-29T03:39:06;7.50;99.90
13684;DHT22;6914;53.552;9.908;2023-04-29T03:41:34;7.50;99.90
13684;DHT22;6914;53.552;9.908;2023-04-29T03:44:01;7.10;99.90
13684;DHT22;6914;53.552;9.908;2023-04-29T03:46:28;7.50;99.90
13684;DHT22;6914;53.552;9.908;2023-04-29T03:48:55;7.60;99.90
13684;DHT22;6914;53.552;9.908;2023-04-29T03:51:23;7.40;99.90
13684;DHT22;6914;53.552;9.908;2023-04-29T03:53:50;7.20;99.90
13684;DHT22;6914;53.552;9.908;2023-04-29T03:56:20;7.40;99.90
13684;DHT22;6914;53.552;9.908;2023-04-29T03:58:48;7.40;99.90
13684;DHT22;6914;53.552;9.908;2023-04-29T04:01:15;7.40;99.90
13684;DHT22;6914;53.552;9.908;2023-04-29T04:03:42;7.50;99.90
13684;DHT22;6914;53.552;9.908;2023-04-29T04:06:09;7.50;99.90
13684;DHT22;6914;53.552;9.908;2023-04-29T04:08:37;7.40;99.90
13684;DHT22;6914;53.552;9.908;2023-04-29T04:11:05;7.50;99.90
13684;DHT22;6914;53.552;9.908;2023-04-29T04:13:33;7.40;99.90
13684;DHT22;6914;53.552;9.908;2023-04-29T04:16:01;7.50;99.90
13684;DHT22;6914;53.552;9.908;2023-04-29T04:18:28;7.40;99.90
13684;DHT22;6914;53.552;9.908;2023-04-29T04:20:54;7.50;99.90
13684;DHT22;6914;53.552;9.908;2023-04-29T04:23:22;7.70;99.90
13684;DHT22;6914;53.552;9.908;2023-04-29T04:25:49;7.50;99.90
13684;DHT22;6914;53.552;9.908;2023-04-29T04:28:17;7.40;99.90
13684;DHT22;6914;53.552;9.908;2023-04-29T04:30:46;7.40;99.90
13684;DHT22;6914;53.552;9.908;2023-04-29T04:33:14;7.30;99.90
13684;DHT22;6914;53.552;9.908;2023-04-29T04:35:42;7.30;99.90
13684;DHT22;6914;53.552;9.908;2023-04-29T04:38:09;7.30;99.90
13684;DHT22;6914;53.552;9.908;2023-04-29T04:40:40;7.30;99.90
13684;DHT22;6914;53.552;9.908;2023-04-29T04:43:07;7.40;99.90
13684;DHT22;6914;53.552;9.908;2023-04-29T04:45:33;7.40;99.90
13684;DHT22;6914;53.552;9.908;2023-04-29T04:48:01;7.40;99.90
13684;DHT22;6914;53.552;9.908;2023-04-29T04:50:29;7.30;99.90
13684;DHT22;6914;53.552;9.908;2023-04-29T04:52:56;7.60;99.90
13684;DHT22;6914;53.552;9.908;2023-04-29T04:55:23;7.50;99.90
13684;DHT22;6914;53.552;9.908;2023-04-29T04:57:50;7.70;99.90
13684;DHT22;6914;53.552;9.908;2023-04-29T05:00:17;7.70;99.90
13684;DHT22;6914;53.552;9.908;2023-04-29T05:02:44;7.80;99.90
13684;DHT22;6914;53.552;9.908;2023-04-29T05:05:11;7.80;99.90
13684;DHT22;6914;53.552;9.908;2023-04-29T05:07:39;7.80;99.90
13684;DHT22;6914;53.552;9.908;2023-04-29T05:10:07;7.80;99.90
13684;DHT22;6914;53.552;9.908;2023-04-29T05:12:34;8.20;99.90
13684;DHT22;6914;53.552;9.908;2023-04-29T05:15:01;8.70;99.90
13684;DHT22;6914;53.552;9.908;2023-04-29T05:17:29;7.70;99.90
13684;DHT22;6914;53.552;9.908;2023-04-29T05:19:56;7.70;99.90
13684;DHT22;6914;53.552;9.908;2023-04-29T05:22:23;7.90;99.90
13684;DHT22;6914;53.552;9.908;2023-04-29T05:24:51;8.00;99.90
13684;DHT22;6914;53.552;9.908;2023-04-29T05:27:19;8.40;99.90
13684;DHT22;6914;53.552;9.908;2023-04-29T05:29:47;9.00;99.90
13684;DHT22;6914;53.552;9.908;2023-04-29T05:32:14;8.30;99.90
13684;DHT22;6914;53.552;9.908;2023-04-29T05:34:41;8.50;99.90
13684;DHT22;6914;53.552;9.908;2023-04-29T05:37:09;9.40;99.90
13684;DHT22;6914;53.552;9.908;2023-04-29T05:39:35;8.30;99.90
13684;DHT22;6914;53.552;9.908;2023-04-29T05:42:04;8.70;99.90
13684;DHT22;6914;53.552;9.908;2023-04-29T05:44:31;8.80;99.90
13684;DHT22;6914;53.552;9.908;2023-04-29T05:46:59;8.90;99.90
13684;DHT22;6914;53.552;9.908;2023-04-29T05:49:26;9.10;99.90
13684;DHT22;6914;53.552;9.908;2023-04-29T05:51:53;8.80;99.90
13684;DHT22;6914;53.552;9.908;2023-04-29T05:54:20;8.80;99.90
13684;DHT22;6914;53.552;9.908;2023-04-29T05:56:49;9.20;99.90
13684;DHT22;6914;53.552;9.908;2023-04-29T05:59:17;8.90;99.90
13684;DHT22;6914;53.552;9.908;2023-04-29T06:01:44;8.90;99.90
13684;DHT22;6914;53.552;9.908;2023-04-29T06:04:11;9.00;99.90
13684;DHT22;6914;53.552;9.908;2023-04-29T06:06:38;9.20;99.90
13684;DHT22;6914;53.552;9.908;2023-04-29T06:09:05;9.40;99.90
13684;DHT22;6914;53.552;9.908;2023-04-29T06:11:31;9.60;99.90
13684;DHT22;6914;53.552;9.908;2023-04-29T06:13:58;9.40;99.90
13684;DHT22;6914;53.552;9.908;2023-04-29T06:16:27;9.50;99.90
13684;DHT22;6914;53.552;9.908;2023-04-29T06:18:54;9.50;99.90
13684;DHT22;6914;53.552;9.908;2023-04-29T06:21:21;9.50;99.90
13684;DHT22;6914;53.552;9.908;2023-04-29T06:23:48;9.30;99.90
13684;DHT22;6914;53.552;9.908;2023-04-29T06:26:15;9.00;99.90
13684;DHT22;6914;53.552;9.908;2023-04-29T06:28:43;9.50;99.90
13684;DHT22;6914;53.552;9.908;2023-04-29T06:31:10;9.50;99.90
13684;DHT22;6914;53.552;9.908;2023-04-29T06:33:38;9.40;99.90
13684;DHT22;6914;53.552;9.908;2023-04-29T06:36:05;9.40;99.90
13684;DHT22;6914;53.552;9.908;2023-04-29T06:38:32;9.40;99.90
13684;DHT22;6914;53.552;9.908;2023-04-29T06:40:59;9.60;99.90
13684;DHT22;6914;53.552;9.908;2023-04-29T06:43:26;9.40;99.90
13684;DHT22;6914;53.552;9.908;2023-04-29T06:45:53;9.50;99.90
13684;DHT22;6914;53.552;9.908;2023-04-29T06:48:20;9.60;99.90
13684;DHT22;6914;53.552;9.908;2023-04-29T06:50:53;9.70;99.90
13684;DHT22;6914;53.552;9.908;2023-04-29T06:53:21;9.70;99.90
13684;DHT22;6914;53.552;9.908;2023-04-29T06:55:48;9.70;99.90
13684;DHT22;6914;53.552;9.908;2023-04-29T06:58:16;9.70;99.90
13684;DHT22;6914;53.552;9.908;2023-04-29T07:00:43;9.80;99.90
13684;DHT22;6914;53.552;9.908;2023-04-29T07:03:10;9.70;99.90
13684;DHT22;6914;53.552;9.908;2023-04-29T07:05:38;9.70;99.90
13684;DHT22;6914;53.552;9.908;2023-04-29T07:08:08;9.80;99.90
13684;DHT22;6914;53.552;9.908;2023-04-29T07:10:35;10.30;99.90
13684;DHT22;6914;53.552;9.908;2023-04-29T07:13:02;10.00;99.90
13684;DHT22;6914;53.552;9.908;2023-04-29T07:15:29;9.80;99.90
13684;DHT22;6914;53.552;9.908;2023-04-29T07:17:56;9.80;99.90
13684;DHT22;6914;53.552;9.908;2023-04-29T07:20:25;9.90;99.90
13684;DHT22;6914;53.552;9.908;2023-04-29T07:22:52;10.00;99.90
13684;DHT22;6914;53.552;9.908;2023-04-29T07:25:21;10.00;99.90
13684;DHT22;6914;53.552;9.908;2023-04-29T07:27:48;9.90;99.90
13684;DHT22;6914;53.552;9.908;2023-04-29T07:30:15;10.00;99.90
13684;DHT22;6914;53.552;9.908;2023-04-29T07:32:41;10.00;99.90
13684;DHT22;6914;53.552;9.908;2023-04-29T07:35:09;10.10;99.90
13684;DHT22;6914;53.552;9.908;2023-04-29T07:37:35;10.10;99.90
13684;DHT22;6914;53.552;9.908;2023-04-29T07:40:03;10.10;99.90
13684;DHT22;6914;53.552;9.908;2023-04-29T07:42:31;10.10;99.90
13684;DHT22;6914;53.552;9.908;2023-04-29T07:44:58;10.30;99.90
13684;DHT22;6914;53.552;9.908;2023-04-29T07:47:27;10.20;99.90
13684;DHT22;6914;53.552;9.908;2023-04-29T07:49:54;10.20;99.90
13684;DHT22;6914;53.552;9.908;2023-04-29T07:52:21;10.30;99.90
13684;DHT22;6914;53.552;9.908;2023-04-29T07:54:48;10.50;99.90
13684;DHT22;6914;53.552;9.908;2023-04-29T07:57:15;10.70;99.90
13684;DHT22;6914;53.552;9.908;2023-04-29T07:59:43;11.00;99.90
13684;DHT22;6914;53.552;9.908;2023-04-29T08:02:10;10.80;99.90
13684;DHT22;6914;53.552;9.908;2023-04-29T08:04:38;11.00;99.90
13684;DHT22;6914;53.552;9.908;2023-04-29T08:07:05;11.30;99.90
13684;DHT22;6914;53.552;9.908;2023-04-29T08:09:33;11.50;99.90
13684;DHT22;6914;53.552;9.908;2023-04-29T08:11:59;12.00;99.90
13684;DHT22;6914;53.552;9.908;2023-04-29T08:14:27;12.40;99.90
13684;DHT22;6914;53.552;9.908;2023-04-29T08:16:55;12.90;99.90
13684;DHT22;6914;53.552;9.908;2023-04-29T08:19:22;12.80;99.90
13684;DHT22;6914;53.552;9.908;2023-04-29T08:21:49;12.50;99.90
13684;DHT22;6914;53.552;9.908;2023-04-29T08:24:16;12.50;99.90
13684;DHT22;6914;53.552;9.908;2023-04-29T08:26:43;12.60;99.90
13684;DHT22;6914;53.552;9.908;2023-04-29T08:29:10;12.40;99.90
13684;DHT22;6914;53.552;9.908;2023-04-29T08:31:37;12.10;99.90
13684;DHT22;6914;53.552;9.908;2023-04-29T08:34:05;11.90;99.90
13684;DHT22;6914;53.552;9.908;2023-04-29T08:36:32;11.70;99.90
13684;DHT22;6914;53.552;9.908;2023-04-29T08:38:59;11.60;99.90
13684;DHT22;6914;53.552;9.908;2023-04-29T08:41:26;11.90;99.90
13684;DHT22;6914;53.552;9.908;2023-04-29T08:43:53;11.70;99.90
13684;DHT22;6914;53.552;9.908;2023-04-29T08:46:20;11.80;99.90
13684;DHT22;6914;53.552;9.908;2023-04-29T08:48:49;11.60;99.90
13684;DHT22;6914;53.552;9.908;2023-04-29T08:51:18;11.90;99.90
13684;DHT22;6914;53.552;9.908;2023-04-29T08:53:45;12.50;99.90
13684;DHT22;6914;53.552;9.908;2023-04-29T08:56:14;12.50;99.90
13684;DHT22;6914;53.552;9.908;2023-04-29T08:58:42;12.60;99.90
13684;DHT22;6914;53.552;9.908;2023-04-29T09:01:09;12.60;99.90
13684;DHT22;6914;53.552;9.908;2023-04-29T09:03:42;12.70;99.90
13684;DHT22;6914;53.552;9.908;2023-04-29T09:06:10;13.30;99.90
13684;DHT22;6914;53.552;9.908;2023-04-29T09:08:39;12.70;99.90
13684;DHT22;6914;53.552;9.908;2023-04-29T09:11:07;12.80;99.90
13684;DHT22;6914;53.552;9.908;2023-04-29T09:13:35;12.70;99.90
13684;DHT22;6914;53.552;9.908;2023-04-29T09:16:02;13.00;99.90
13684;DHT22;6914;53.552;9.908;2023-04-29T09:18:44;13.10;99.90
13684;DHT22;6914;53.552;9.908;2023-04-29T09:21:16;14.00;99.90
13684;DHT22;6914;53.552;9.908;2023-04-29T09:23:45;13.30;99.90
13684;DHT22;6914;53.552;9.908;2023-04-29T09:26:13;13.30;99.90
13684;DHT22;6914;53.552;9.908;2023-04-29T09:28:40;13.40;99.90
13684;DHT22;6914;53.552;9.908;2023-04-29T09:31:10;13.90;99.90
13684;DHT22;6914;53.552;9.908;2023-04-29T09:33:51;14.00;99.90
13684;DHT22;6914;53.552;9.908;2023-04-29T09:36:38;14.00;99.90
13684;DHT22;6914;53.552;9.908;2023-04-29T09:39:09;14.10;99.90
13684;DHT22;6914;53.552;9.908;2023-04-29T09:41:39;14.60;99.90
13684;DHT22;6914;53.552;9.908;2023-04-29T09:44:08;15.10;99.90
13684;DHT22;6914;53.552;9.908;2023-04-29T09:46:36;15.30;99.90
13684;DHT22;6914;53.552;9.908;2023-04-29T09:49:03;15.50;97.50
13684;DHT22;6914;53.552;9.908;2023-04-29T09:51:30;15.40;99.90
13684;DHT22;6914;53.552;9.908;2023-04-29T09:53:59;15.90;97.50
13684;DHT22;6914;53.552;9.908;2023-04-29T09:56:48;16.20;91.90
13684;DHT22;6914;53.552;9.908;2023-04-29T09:59:15;16.40;87.30
13684;DHT22;6914;53.552;9.908;2023-04-29T10:01:42;16.20;91.70
13684;DHT22;6914;53.552;9.908;2023-04-29T10:04:10;16.60;85.60
13684;DHT22;6914;53.552;9.908;2023-04-29T10:06:39;16.80;83.50
13684;DHT22;6914;53.552;9.908;2023-04-29T10:09:07;17.30;82.60
13684;DHT22;6914;53.552;9.908;2023-04-29T10:11:39;17.60;81.40
13684;DHT22;6914;53.552;9.908;2023-04-29T10:14:06;17.60;80.70
13684;DHT22;6914;53.552;9.908;2023-04-29T10:16:39;18.20;79.00
13684;DHT22;6914;53.552;9.908;2023-04-29T10:19:11;18.80;77.40
13684;DHT22;6914;53.552;9.908;2023-04-29T10:21:40;19.40;77.80
13684;DHT22;6914;53.552;9.908;2023-04-29T10:24:09;19.60;77.30
13684;DHT22;6914;53.552;9.908;2023-04-29T10:26:41;19.70;76.80
13684;DHT22;6914;53.552;9.908;2023-04-29T10:29:10;20.70;74.70
13684;DHT22;6914;53.552;9.908;2023-04-29T10:31:39;20.90;72.50
13684;DHT22;6914;53.552;9.908;2023-04-29T10:34:07;21.20;70.30
13684;DHT22;6914;53.552;9.908;2023-04-29T10:36:34;21.40;70.50
13684;DHT22;6914;53.552;9.908;2023-04-29T10:39:03;22.00;68.80
13684;DHT22;6914;53.552;9.908;2023-04-29T10:41:33;21.80;69.60
13684;DHT22;6914;53.552;9.908;2023-04-29T10:44:04;23.10;67.50
13684;DHT22;6914;53.552;9.908;2023-04-29T10:46:31;22.70;66.40
13684;DHT22;6914;53.552;9.908;2023-04-29T10:49:00;22.40;66.40
13684;DHT22;6914;53.552;9.908;2023-04-29T10:51:29;23.20;64.80
13684;DHT22;6914;53.552;9.908;2023-04-29T10:53:58;22.90;64.50
13684;DHT22;6914;53.552;9.908;2023-04-29T10:56:38;22.90;63.70
13684;DHT22;6914;53.552;9.908;2023-04-29T10:59:09;22.80;65.00
13684;DHT22;6914;53.552;9.908;2023-04-29T11:01:41;22.40;65.90
13684;DHT22;6914;53.552;9.908;2023-04-29T11:04:08;22.10;66.60
13684;DHT22;6914;53.552;9.908;2023-04-29T11:06:41;21.70;64.90
13684;DHT22;6914;53.552;9.908;2023-04-29T11:09:10;20.80;65.10
13684;DHT22;6914;53.552;9.908;2023-04-29T11:12:02;21.20;67.80
13684;DHT22;6914;53.552;9.908;2023-04-29T11:14:34;21.30;67.50
13684;DHT22;6914;53.552;9.908;2023-04-29T11:17:07;21.20;67.10
13684;DHT22;6914;53.552;9.908;2023-04-29T11:19:35;21.50;66.80
13684;DHT22;6914;53.552;9.908;2023-04-29T11:22:11;21.10;67.50
13684;DHT22;6914;53.552;9.908;2023-04-29T11:24:49;20.50;68.50
13684;DHT22;6914;53.552;9.908;2023-04-29T11:27:17;21.60;68.80
13684;DHT22;6914;53.552;9.908;2023-04-29T11:29:46;20.10;67.60
13684;DHT22;6914;53.552;9.908;2023-04-29T11:32:13;20.10;69.10
13684;DHT22;6914;53.552;9.908;2023-04-29T11:34:40;19.70;69.10
13684;DHT22;6914;53.552;9.908;2023-04-29T11:37:08;21.10;68.70
13684;DHT22;6914;53.552;9.908;2023-04-29T11:39:35;21.90;68.60
13684;DHT22;6914;53.552;9.908;2023-04-29T11:42:03;21.70;67.80
13684;DHT22;6914;53.552;9.908;2023-04-29T11:44:32;21.10;68.70
13684;DHT22;6914;53.552;9.908;2023-04-29T11:47:02;20.90;69.50
13684;DHT22;6914;53.552;9.908;2023-04-29T11:49:30;21.00;68.00
13684;DHT22;6914;53.552;9.908;2023-04-29T11:51:57;21.00;65.10
13684;DHT22;6914;53.552;9.908;2023-04-29T11:54:25;20.50;66.80
13684;DHT22;6914;53.552;9.908;2023-04-29T11:56:52;20.10;68.60
13684;DHT22;6914;53.552;9.908;2023-04-29T11:59:20;19.20;68.90
13684;DHT22;6914;53.552;9.908;2023-04-29T12:01:48;19.20;71.40
13684;DHT22;6914;53.552;9.908;2023-04-29T12:04:16;19.10;72.00
13684;DHT22;6914;53.552;9.908;2023-04-29T12:06:44;19.90;72.80
13684;DHT22;6914;53.552;9.908;2023-04-29T12:09:10;20.30;71.00
13684;DHT22;6914;53.552;9.908;2023-04-29T12:11:40;20.00;71.40
13684;DHT22;6914;53.552;9.908;2023-04-29T12:14:06;19.80;71.70
13684;DHT22;6914;53.552;9.908;2023-04-29T12:16:34;19.70;70.30
13684;DHT22;6914;53.552;9.908;2023-04-29T12:19:01;19.40;70.60
13684;DHT22;6914;53.552;9.908;2023-04-29T12:21:32;19.70;73.20
13684;DHT22;6914;53.552;9.908;2023-04-29T12:24:02;20.70;71.40
13684;DHT22;6914;53.552;9.908;2023-04-29T12:26:29;20.90;68.20
13684;DHT22;6914;53.552;9.908;2023-04-29T12:28:57;20.70;69.50
13684;DHT22;6914;53.552;9.908;2023-04-29T12:31:31;21.20;71.10
13684;DHT22;6914;53.552;9.908;2023-04-29T12:33:59;21.00;69.10
13684;DHT22;6914;53.552;9.908;2023-04-29T12:36:30;20.10;69.50
13684;DHT22;6914;53.552;9.908;2023-04-29T12:38:58;20.00;71.10
13684;DHT22;6914;53.552;9.908;2023-04-29T12:41:38;20.30;72.20
13684;DHT22;6914;53.552;9.908;2023-04-29T12:44:05;20.80;70.30
13684;DHT22;6914;53.552;9.908;2023-04-29T12:46:36;20.40;70.70
13684;DHT22;6914;53.552;9.908;2023-04-29T12:49:03;20.40;69.90
13684;DHT22;6914;53.552;9.908;2023-04-29T12:51:32;20.40;69.80
13684;DHT22;6914;53.552;9.908;2023-04-29T12:54:00;20.70;69.90
13684;DHT22;6914;53.552;9.908;2023-04-29T12:56:29;20.00;68.20
13684;DHT22;6914;53.552;9.908;2023-04-29T12:58:56;19.30;68.50
13684;DHT22;6914;53.552;9.908;2023-04-29T13:01:23;19.40;70.20
13684;DHT22;6914;53.552;9.908;2023-04-29T13:03:52;19.00;70.40
13684;DHT22;6914;53.552;9.908;2023-04-29T13:06:19;18.60;70.70
13684;DHT22;6914;53.552;9.908;2023-04-29T13:08:47;18.50;71.70
13684;DHT22;6914;53.552;9.908;2023-04-29T13:11:16;18.70;70.80
13684;DHT22;6914;53.552;9.908;2023-04-29T13:13:42;20.50;70.80
13684;DHT22;6914;53.552;9.908;2023-04-29T13:16:09;18.70;66.50
13684;DHT22;6914;53.552;9.908;2023-04-29T13:18:36;18.30;68.70
13684;DHT22;6914;53.552;9.908;2023-04-29T13:21:03;18.50;67.40
13684;DHT22;6914;53.552;9.908;2023-04-29T13:23:30;18.10;66.40
13684;DHT22;6914;53.552;9.908;2023-04-29T13:25:58;18.30;66.20
13684;DHT22;6914;53.552;9.908;2023-04-29T13:28:27;18.10;67.50
13684;DHT22;6914;53.552;9.908;2023-04-29T13:30:56;18.90;69.60
13684;DHT22;6914;53.552;9.908;2023-04-29T13:33:23;18.10;67.50
13684;DHT22;6914;53.552;9.908;2023-04-29T13:35:49;18.30;68.50
13684;DHT22;6914;53.552;9.908;2023-04-29T13:38:16;18.40;69.00
13684;DHT22;6914;53.552;9.908;2023-04-29T13:40:43;18.30;68.80
13684;DHT22;6914;53.552;9.908;2023-04-29T13:43:11;17.60;67.60
13684;DHT22;6914;53.552;9.908;2023-04-29T13:45:38;18.20;66.90
13684;DHT22;6914;53.552;9.908;2023-04-29T13:48:05;18.30;68.10
13684;DHT22;6914;53.552;9.908;2023-04-29T13:50:32;17.90;69.50
13684;DHT22;6914;53.552;9.908;2023-04-29T13:53:00;17.90;70.40
13684;DHT22;6914;53.552;9.908;2023-04-29T13:55:27;17.70;71.30
13684;DHT22;6914;53.552;9.908;2023-04-29T13:57:55;17.70;72.00
13684;DHT22;6914;53.552;9.908;2023-04-29T14:00:24;17.30;73.00
13684;DHT22;6914;53.552;9.908;2023-04-29T14:02:51;17.50;73.10
13684;DHT22;6914;53.552;9.908;2023-04-29T14:05:18;17.00;72.40
13684;DHT22;6914;53.552;9.908;2023-04-29T14:07:45;16.70;72.70
13684;DHT22;6914;53.552;9.908;2023-04-29T14:10:12;17.80;74.90
13684;DHT22;6914;53.552;9.908;2023-04-29T14:12:39;17.10;74.40
13684;DHT22;6914;53.552;9.908;2023-04-29T14:15:06;16.20;72.00
13684;DHT22;6914;53.552;9.908;2023-04-29T14:17:35;17.10;72.70
13684;DHT22;6914;53.552;9.908;2023-04-29T14:20:02;16.60;73.40
13684;DHT22;6914;53.552;9.908;2023-04-29T14:22:32;16.70;74.30
13684;DHT22;6914;53.552;9.908;2023-04-29T14:24:58;16.60;74.00
13684;DHT22;6914;53.552;9.908;2023-04-29T14:27:25;16.90;72.70
13684;DHT22;6914;53.552;9.908;2023-04-29T14:29:52;16.70;73.50
13684;DHT22;6914;53.552;9.908;2023-04-29T14:32:19;16.70;73.40
13684;DHT22;6914;53.552;9.908;2023-04-29T14:34:47;16.70;72.90
13684;DHT22;6914;53.552;9.908;2023-04-29T14:37:14;16.70;72.80
13684;DHT22;6914;53.552;9.908;2023-04-29T14:39:41;16.70;73.50
13684;DHT22;6914;53.552;9.908;2023-04-29T14:42:07;16.40;74.40
13684;DHT22;6914;53.552;9.908;2023-04-29T14:44:35;16.20;76.40
13684;DHT22;6914;53.552;9.908;2023-04-29T14:47:02;15.80;76.90
13684;DHT22;6914;53.552;9.908;2023-04-29T14:49:32;16.10;77.80
13684;DHT22;6914;53.552;9.908;2023-04-29T14:52:01;16.00;79.00
13684;DHT22;6914;53.552;9.908;2023-04-29T14:54:29;16.00;78.90
13684;DHT22;6914;53.552;9.908;2023-04-29T14:56:59;15.20;82.90
13684;DHT22;6914;53.552;9.908;2023-04-29T14:59:27;16.00;88.80
13684;DHT22;6914;53.552;9.908;2023-04-29T15:01:58;15.90;97.30
13684;DHT22;6914;53.552;9.908;2023-04-29T15:04:25;15.70;99.90
13684;DHT22;6914;53.552;9.908;2023-04-29T15:06:52;15.70;99.90
13684;DHT22;6914;53.552;9.908;2023-04-29T15:09:21;15.60;99.90
13684;DHT22;6914;53.552;9.908;2023-04-29T15:11:49;15.50;99.90
13684;DHT22;6914;53.552;9.908;2023-04-29T15:14:16;15.50;99.90
13684;DHT22;6914;53.552;9.908;2023-04-29T15:16:42;15.80;99.90
13684;DHT22;6914;53.552;9.908;2023-04-29T15:19:10;15.80;99.90
13684;DHT22;6914;53.552;9.908;2023-04-29T15:21:37;15.50;99.90
13684;DHT22;6914;53.552;9.908;2023-04-29T15:24:03;15.40;99.90
13684;DHT22;6914;53.552;9.908;2023-04-29T15:26:35;15.50;99.90
13684;DHT22;6914;53.552;9.908;2023-04-29T15:29:02;15.00;99.90
13684;DHT22;6914;53.552;9.908;2023-04-29T15:31:29;14.80;99.90
13684;DHT22;6914;53.552;9.908;2023-04-29T15:33:58;14.60;99.90
13684;DHT22;6914;53.552;9.908;2023-04-29T15:36:28;14.50;99.90
13684;DHT22;6914;53.552;9.908;2023-04-29T15:38:57;14.10;99.90
13684;DHT22;6914;53.552;9.908;2023-04-29T15:41:25;14.10;99.90
13684;DHT22;6914;53.552;9.908;2023-04-29T15:43:55;14.40;99.90
13684;DHT22;6914;53.552;9.908;2023-04-29T15:46:22;14.30;99.90
13684;DHT22;6914;53.552;9.908;2023-04-29T15:48:49;14.40;99.90
13684;DHT22;6914;53.552;9.908;2023-04-29T15:51:16;14.20;99.90
13684;DHT22;6914;53.552;9.908;2023-04-29T15:53:43;14.60;99.90
13684;DHT22;6914;53.552;9.908;2023-04-29T15:56:10;14.80;99.90
13684;DHT22;6914;53.552;9.908;2023-04-29T15:58:37;14.70;99.90
13684;DHT22;6914;53.552;9.908;2023-04-29T16:01:06;14.80;99.90